Time;durP1;ratioP1;P1;durP2;ratioP2;P2;SDS_P1;SDS_P2;PMS_P1;PMS_P2;Temp;Humidity;BMP_temperature;BMP_pressure;BME280_temperature;BME280_humidity;BME280_pressure;Samples;Min_cycle;Max_cycle;Signal;HPM_P1;HPM_P2
2023/05/26 00:04:45;;;;;;;7.53;3.72;;;;;;;19.41;54.10;97569.59;10410033;28;20049;-50
2023/05/26 00:10:06;;;;;;;8.43;4.05;;;;;;;19.41;54.13;97572.28;10388316;28;20038;-49
2023/05/26 00:15:26;;;;;;;6.18;3.90;;;;;;;19.42;54.14;97565.78;10394595;28;20041;-50
2023/05/26 00:20:45;;;;;;;6.22;3.83;;;;;;;19.41;54.11;97566.09;10389291;28;20108;-47
2023/05/26 00:26:07;;;;;;;5.78;3.97;;;;;;;19.41;54.24;97571.50;10398094;28;20041;-49
2023/05/26 00:31:27;;;;;;;6.38;4.03;;;;;;;19.40;54.20;97565.28;10413702;28;20056;-50
2023/05/26 00:36:46;;;;;;;6.15;3.55;;;;;;;19.40;54.15;97573.38;10405791;28;20042;-49
2023/05/26 00:42:06;;;;;;;5.93;3.50;;;;;;;19.39;54.09;97561.00;10396379;28;20041;-49
2023/05/26 00:47:26;;;;;;;6.57;3.63;;;;;;;19.39;54.04;97561.00;10424547;28;20099;-49
2023/05/26 00:52:46;;;;;;;4.82;3.53;;;;;;;19.38;54.05;97559.38;10402978;28;20057;-49
2023/05/26 00:58:05;;;;;;;5.80;3.60;;;;;;;19.40;54.08;97561.78;10405226;28;20041;-48
2023/05/26 01:03:27;;;;;;;3.75;3.13;;;;;;;19.39;54.11;97555.59;10386413;28;20046;-49
2023/05/26 01:08:46;;;;;;;6.97;3.50;;;;;;;19.38;54.06;97553.97;10424625;28;20064;-51
2023/05/26 01:14:11;;;;;;;6.28;3.33;;;;;;;19.38;54.00;97553.19;10410909;28;20049;-50
2023/05/26 01:19:54;;;;;;;5.00;3.28;;;;;;;19.38;53.98;97547.78;10421309;28;20049;-47
2023/05/26 01:25:44;;;;;;;5.50;3.30;;;;;;;19.38;53.94;97547.78;10425228;28;20046;-49
2023/05/26 01:31:04;;;;;;;5.90;3.50;;;;;;;19.36;53.89;97542.69;10396511;28;20049;-50
2023/05/26 01:36:24;;;;;;;5.63;3.08;;;;;;;19.36;54.12;97537.28;10392422;28;20041;-47
2023/05/26 01:41:44;;;;;;;4.93;3.40;;;;;;;19.36;54.07;97531.88;10413558;28;20095;-48
2023/05/26 01:47:05;;;;;;;5.93;3.88;;;;;;;19.36;53.93;97534.56;10408975;28;20072;-50
2023/05/26 01:52:25;;;;;;;4.63;3.40;;;;;;;19.35;53.95;97539.19;10394694;28;20413;-50
2023/05/26 01:57:45;;;;;;;7.07;3.28;;;;;;;19.34;54.02;97532.16;10390245;28;20380;-49
2023/05/26 02:03:05;;;;;;;5.25;3.17;;;;;;;19.35;53.99;97530.28;10403729;28;20038;-49
2023/05/26 02:08:25;;;;;;;4.15;2.78;;;;;;;19.34;53.94;97536.78;10423714;28;20052;-49
2023/05/26 02:13:48;;;;;;;4.30;3.03;;;;;;;19.34;54.06;97532.16;10402078;28;20387;-48
2023/05/26 02:19:08;;;;;;;4.15;2.88;;;;;;;19.34;53.91;97531.38;10397285;28;20053;-50
2023/05/26 02:24:28;;;;;;;4.50;3.10;;;;;;;19.33;53.91;97530.59;10420690;28;20040;-48
2023/05/26 02:29:49;;;;;;;4.72;3.22;;;;;;;19.34;53.89;97528.66;10400941;28;20038;-47
2023/05/26 02:35:09;;;;;;;3.90;2.85;;;;;;;19.33;53.79;97524.38;10388592;28;20045;-48
2023/05/26 02:40:29;;;;;;;4.20;3.00;;;;;;;19.33;53.81;97530.59;10390307;28;20042;-49
2023/05/26 02:45:48;;;;;;;5.15;2.92;;;;;;;19.33;53.92;97532.50;10390079;28;20038;-48
2023/05/26 02:51:08;;;;;;;4.47;3.22;;;;;;;19.32;53.94;97530.88;10385905;28;20057;-48
2023/05/26 02:56:28;;;;;;;3.55;3.03;;;;;;;19.32;53.94;97522.78;10416424;28;20041;-50
2023/05/26 03:01:47;;;;;;;4.85;2.92;;;;;;;19.32;53.94;97522.78;10389847;28;20164;-49
2023/05/26 03:07:09;;;;;;;5.03;2.90;;;;;;;19.30;53.92;97525.78;10403657;28;20043;-48
2023/05/26 03:12:30;;;;;;;4.82;3.03;;;;;;;19.30;53.91;97520.38;10392193;28;20398;-48
2023/05/26 03:17:50;;;;;;;3.67;2.63;;;;;;;19.30;53.91;97514.97;10398253;28;20048;-46
2023/05/26 03:23:11;;;;;;;3.85;2.78;;;;;;;19.29;53.85;97518.78;10388671;28;20041;-46
2023/05/26 03:28:30;;;;;;;3.58;2.83;;;;;;;19.30;53.87;97523.06;10389364;28;20065;-47
2023/05/26 03:33:51;;;;;;;3.33;2.70;;;;;;;19.30;53.98;97522.28;10407554;28;20048;-49
2023/05/26 03:39:11;;;;;;;4.82;2.72;;;;;;;19.29;53.94;97523.41;10382185;28;20127;-46
2023/05/26 03:44:31;;;;;;;5.05;2.63;;;;;;;19.28;53.82;97527.19;10392931;28;20041;-46
2023/05/26 03:49:52;;;;;;;4.03;2.83;;;;;;;19.29;53.81;97523.41;10388824;28;20053;-46
2023/05/26 03:55:11;;;;;;;2.97;2.53;;;;;;;19.28;53.84;97527.97;10408574;28;20091;-47
2023/05/26 04:00:32;;;;;;;4.05;2.80;;;;;;;19.29;53.86;97531.50;10404861;28;20038;-48
2023/05/26 04:05:52;;;;;;;3.22;2.58;;;;;;;19.30;53.84;97530.38;10398332;28;20050;-47
2023/05/26 04:11:12;;;;;;;4.90;2.65;;;;;;;19.31;53.90;97535.50;10388928;28;20498;-48
2023/05/26 04:16:31;;;;;;;2.80;2.50;;;;;;;19.33;53.89;97538.69;10392777;28;20045;-47
2023/05/26 04:21:51;;;;;;;3.75;2.70;;;;;;;19.34;53.72;97542.19;10388581;28;20065;-47
2023/05/26 04:27:12;;;;;;;4.40;2.65;;;;;;;19.38;53.70;97545.06;10392239;28;20049;-46
2023/05/26 04:32:48;;;;;;;2.90;2.60;;;;;;;19.35;53.72;97547.28;10393291;28;20042;-49
2023/05/26 04:38:28;;;;;;;3.40;2.45;;;;;;;19.34;53.92;97550.28;10397365;28;20479;-47
2023/05/26 04:43:48;;;;;;;2.75;2.40;;;;;;;19.33;53.83;97551.41;10402357;28;20041;-48
2023/05/26 04:49:08;;;;;;;2.65;2.40;;;;;;;19.32;53.88;97549.78;10393993;28;20068;-49
2023/05/26 04:54:27;;;;;;;3.00;2.65;;;;;;;19.31;53.96;97546.31;10399100;28;20042;-49
2023/05/26 04:59:48;;;;;;;3.67;2.60;;;;;;;19.31;53.92;97548.22;10385052;28;20410;-49
2023/05/26 05:05:10;;;;;;;3.60;2.70;;;;;;;19.31;53.95;97556.31;10415567;28;20037;-49
2023/05/26 05:10:29;;;;;;;3.72;2.38;;;;;;;19.32;54.04;97561.38;10398790;28;20394;-47
2023/05/26 05:15:50;;;;;;;3.03;2.28;;;;;;;19.31;54.01;97559.00;10388330;28;20379;-46
2023/05/26 05:21:11;;;;;;;2.78;2.50;;;;;;;19.30;54.04;97562.81;10384487;28;20046;-46
2023/05/26 05:26:31;;;;;;;3.60;2.50;;;;;;;19.29;54.09;97575.53;10393436;28;20068;-46
2023/05/26 05:31:51;;;;;;;2.88;2.47;;;;;;;19.30;54.04;97571.69;10402630;28;20050;-46
2023/05/26 05:37:11;;;;;;;3.00;2.15;;;;;;;19.30;54.08;97573.63;10384213;28;20096;-46
2023/05/26 05:42:31;;;;;;;3.50;2.25;;;;;;;19.29;54.10;97580.13;10390240;28;20050;-50
2023/05/26 05:47:51;;;;;;;3.13;2.40;;;;;;;19.29;54.16;97580.13;10396770;28;20041;-47
2023/05/26 05:53:11;;;;;;;3.40;2.60;;;;;;;19.29;54.13;97589.03;10379664;28;20104;-50
2023/05/26 05:58:31;;;;;;;2.78;2.28;;;;;;;19.29;54.17;97591.72;10397961;28;20038;-46
2023/05/26 06:03:51;;;;;;;4.05;2.17;;;;;;;19.29;54.09;97599.03;10390843;28;20038;-48
2023/05/26 06:09:11;;;;;;;5.25;2.20;;;;;;;19.30;54.24;97606.03;10391550;28;20558;-49
2023/05/26 06:14:30;;;;;;;3.55;2.40;;;;;;;19.29;54.12;97609.84;10407590;28;20033;-47
2023/05/26 06:19:50;;;;;;;2.83;2.22;;;;;;;19.31;54.14;97613.03;10400842;28;20038;-49
2023/05/26 06:25:10;;;;;;;2.85;2.20;;;;;;;19.29;54.11;97607.16;10401394;28;20050;-51
2023/05/26 06:30:31;;;;;;;2.47;1.90;;;;;;;19.30;54.11;97614.13;10401992;28;20048;-46
2023/05/26 06:36:05;;;;;;;2.55;2.20;;;;;;;19.31;54.09;97621.16;10397875;28;20444;-49
2023/05/26 06:41:26;;;;;;;8.88;4.35;;;;;;;19.28;52.76;97624.44;10400523;28;20042;-47
2023/05/26 06:46:47;;;;;;;5.20;3.20;;;;;;;19.26;53.12;97619.34;10392247;28;20099;-46
2023/05/26 06:52:17;;;;;;;2.35;2.15;;;;;;;19.27;53.67;97614.75;10407186;28;20057;-47
2023/05/26 06:57:37;;;;;;;2.97;2.53;;;;;;;19.28;53.86;97619.03;10408664;28;20046;-49
2023/05/26 07:02:57;;;;;;;3.65;2.58;;;;;;;19.29;53.88;97616.03;10398915;28;20033;-48
2023/05/26 07:08:22;;;;;;;1.90;1.67;;;;;;;19.29;53.81;97621.44;10403013;28;20042;-47
2023/05/26 07:13:41;;;;;;;2.30;2.10;;;;;;;19.30;53.96;97619.53;10414911;28;20041;-47
2023/05/26 07:19:02;;;;;;;3.22;2.15;;;;;;;19.30;53.91;97627.66;10385094;28;20050;-47
2023/05/26 07:24:21;;;;;;;2.30;2.10;;;;;;;19.30;53.95;97617.63;10402350;28;20038;-48
2023/05/26 07:29:41;;;;;;;2.42;2.15;;;;;;;19.30;53.92;97614.13;10390640;28;20494;-47
2023/05/26 07:35:02;;;;;;;3.08;2.33;;;;;;;19.30;54.02;97612.22;10390378;28;20214;-48
2023/05/26 07:40:22;;;;;;;2.67;2.00;;;;;;;19.31;54.01;97618.44;10420664;28;20103;-46
2023/05/26 07:45:41;;;;;;;2.58;2.03;;;;;;;19.31;53.99;97618.44;10388653;28;20058;-48
2023/05/26 07:51:01;;;;;;;1.90;1.80;;;;;;;19.31;53.98;97624.66;10384545;28;20104;-46
2023/05/26 07:56:20;;;;;;;2.42;2.00;;;;;;;19.31;54.08;97621.16;10412301;28;20584;-50
2023/05/26 08:01:39;;;;;;;2.70;1.98;;;;;;;19.31;54.10;97623.84;10387258;28;20045;-47
2023/05/26 08:06:59;;;;;;;2.10;1.90;;;;;;;19.32;54.10;97630.84;10401476;28;20519;-46
2023/05/26 08:12:18;;;;;;;2.10;1.90;;;;;;;19.31;54.11;97634.66;10380011;28;20084;-48
2023/05/26 08:17:37;;;;;;;2.38;2.05;;;;;;;19.31;54.19;97624.66;10406142;28;20100;-46
2023/05/26 08:22:58;;;;;;;2.22;1.80;;;;;;;19.31;54.14;97627.34;10389522;28;20053;-47
2023/05/26 08:28:18;;;;;;;2.67;1.73;;;;;;;19.32;54.22;97622.75;10383448;28;20054;-45
2023/05/26 08:33:37;;;;;;;1.98;1.75;;;;;;;19.31;54.16;97613.84;10387558;28;20037;-46
2023/05/26 08:38:57;;;;;;;2.17;1.98;;;;;;;19.32;54.21;97623.53;10391948;28;20483;-46
2023/05/26 08:44:17;;;;;;;1.77;1.67;;;;;;;19.32;54.34;97617.34;10397088;28;20052;-48
2023/05/26 08:49:41;;;;;;;2.38;2.10;;;;;;;19.32;54.22;97631.63;10388431;28;20050;-45
2023/05/26 08:55:01;;;;;;;2.40;1.90;;;;;;;19.32;54.33;97620.81;10402750;28;20532;-45
2023/05/26 09:00:21;;;;;;;2.75;1.95;;;;;;;19.32;54.38;97620.03;10385688;28;20379;-45
2023/05/26 09:05:41;;;;;;;2.03;1.83;;;;;;;19.34;54.35;97625.94;10404061;28;20049;-45
2023/05/26 09:11:20;;;;;;;3.75;1.80;;;;;;;19.33;54.41;97617.03;10424697;28;20041;-46
2023/05/26 09:16:40;;;;;;;2.00;1.88;;;;;;;19.33;54.39;97621.66;10375450;28;20054;-46
2023/05/26 09:22:07;;;;;;;1.92;1.70;;;;;;;19.33;54.39;97624.34;10399865;28;20064;-45
2023/05/26 09:27:27;;;;;;;2.00;1.67;;;;;;;19.33;54.44;97622.44;10391306;28;20050;-46
2023/05/26 09:32:46;;;;;;;1.80;1.70;;;;;;;19.33;54.48;97621.66;10404662;28;20048;-46
2023/05/26 09:38:07;;;;;;;2.08;1.90;;;;;;;19.33;54.51;97627.06;10398906;28;20042;-46
2023/05/26 09:43:27;;;;;;;1.90;1.70;;;;;;;19.33;54.51;97629.75;10417952;28;20084;-46
2023/05/26 09:48:50;;;;;;;2.08;1.88;;;;;;;19.33;54.42;97618.94;10392427;28;20494;-46
2023/05/26 09:54:11;;;;;;;1.70;1.50;;;;;;;19.32;54.51;97620.81;10412896;28;20033;-47
2023/05/26 09:59:38;;;;;;;2.70;2.05;;;;;;;19.33;54.57;97627.06;10419379;28;20071;-48
2023/05/26 10:04:57;;;;;;;1.70;1.60;;;;;;;19.33;54.56;97621.66;10395060;28;20104;-45
2023/05/26 10:10:17;;;;;;;1.85;1.75;;;;;;;19.33;54.60;97621.66;10402814;28;20037;-45
2023/05/26 10:15:37;;;;;;;1.70;1.60;;;;;;;19.33;54.69;97617.03;10398181;28;20038;-48
2023/05/26 10:20:57;;;;;;;1.77;1.67;;;;;;;19.33;54.60;97617.03;10402679;28;20042;-46
2023/05/26 10:26:23;;;;;;;1.58;1.48;;;;;;;19.33;54.60;97616.25;10393194;28;20510;-47
2023/05/26 10:31:43;;;;;;;2.22;1.67;;;;;;;19.33;54.58;97616.25;10379383;28;20461;-46
2023/05/26 10:37:12;;;;;;;1.75;1.65;;;;;;;19.33;54.47;97610.84;10407032;28;20038;-47
2023/05/26 10:42:31;;;;;;;1.98;1.75;;;;;;;19.34;54.69;97620.53;10381871;28;20491;-48
2023/05/26 10:47:58;;;;;;;2.15;1.80;;;;;;;19.33;54.81;97613.53;10383179;28;20042;-48
2023/05/26 10:53:20;;;;;;;2.17;1.98;;;;;;;19.33;54.75;97621.66;10386751;28;20072;-47
2023/05/26 10:58:45;;;;;;;1.88;1.67;;;;;;;19.33;54.75;97616.25;10390644;28;20478;-47
2023/05/26 11:04:05;;;;;;;2.00;1.77;;;;;;;19.33;54.74;97614.34;10401015;28;20437;-45
2023/05/26 11:09:27;;;;;;;2.03;1.83;;;;;;;19.33;54.77;97613.53;10422529;28;20100;-48
2023/05/26 11:14:46;;;;;;;1.67;1.58;;;;;;;19.34;54.83;97617.81;10396519;28;20053;-46
2023/05/26 11:20:06;;;;;;;1.85;1.75;;;;;;;19.34;54.82;97612.44;10389129;28;20037;-46
2023/05/26 11:25:26;;;;;;;1.73;1.60;;;;;;;19.34;54.88;97604.31;10387785;28;20434;-46
2023/05/26 11:30:45;;;;;;;1.70;1.60;;;;;;;19.34;54.83;97609.72;10391727;28;20398;-48
2023/05/26 11:36:09;;;;;;;1.70;1.60;;;;;;;19.33;54.81;97610.84;10407750;28;20405;-47
2023/05/26 11:41:29;;;;;;;1.88;1.70;;;;;;;19.35;54.80;97614.03;10378042;28;20053;-47
2023/05/26 11:46:48;;;;;;;1.85;1.50;;;;;;;19.33;54.88;97614.34;10394074;28;20489;-46
2023/05/26 11:52:12;;;;;;;1.70;1.60;;;;;;;19.34;54.86;97607.03;10379452;28;20070;-47
2023/05/26 11:57:34;;;;;;;1.85;1.67;;;;;;;19.34;54.84;97612.44;10388317;28;20053;-45
2023/05/26 12:02:53;;;;;;;1.60;1.50;;;;;;;19.34;54.92;97605.13;10386563;28;20045;-46
2023/05/26 12:08:13;;;;;;;1.60;1.45;;;;;;;19.34;55.01;97605.13;10390234;28;20402;-46
2023/05/26 12:13:32;;;;;;;1.80;1.70;;;;;;;19.34;54.96;97597.00;10386917;28;20045;-48
2023/05/26 12:18:53;;;;;;;1.85;1.60;;;;;;;19.34;54.57;97596.22;10396825;28;20045;-49
2023/05/26 12:24:14;;;;;;;2.75;2.00;;;;;;;19.34;54.62;97602.41;10397796;28;20482;-47
2023/05/26 12:29:41;;;;;;;1.95;1.80;;;;;;;19.33;54.56;97595.44;10398921;28;20037;-50
2023/05/26 12:35:01;;;;;;;2.97;1.98;;;;;;;19.33;54.54;97594.63;10402411;28;20048;-49
2023/05/26 12:40:20;;;;;;;2.00;1.80;;;;;;;19.33;54.58;97591.94;10414451;28;20499;-50
2023/05/26 12:45:40;;;;;;;1.90;1.77;;;;;;;19.34;54.60;97590.81;10389015;28;20079;-47
2023/05/26 12:51:01;;;;;;;2.25;1.58;;;;;;;19.34;54.65;97590.81;10377626;28;20053;-46
2023/05/26 12:56:21;;;;;;;1.80;1.70;;;;;;;19.33;54.64;97583.81;10399664;28;20401;-49
2023/05/26 13:01:40;;;;;;;2.42;1.88;;;;;;;19.34;54.69;97580.00;10397003;28;20502;-47
2023/05/26 13:07:00;;;;;;;2.10;1.63;;;;;;;19.34;54.68;97575.38;10388552;28;20056;-47
2023/05/26 13:12:19;;;;;;;1.92;1.75;;;;;;;19.35;54.69;97581.63;10411500;28;20490;-46
2023/05/26 13:17:39;;;;;;;1.60;1.50;;;;;;;19.35;54.77;97574.31;10399669;28;20041;-49
2023/05/26 13:22:59;;;;;;;1.90;1.75;;;;;;;19.36;54.86;97570.47;10393566;28;20046;-47
2023/05/26 13:28:18;;;;;;;1.90;1.52;;;;;;;19.36;54.89;97573.19;10396290;28;20104;-47
2023/05/26 13:33:38;;;;;;;1.98;1.70;;;;;;;19.36;54.87;97581.28;10393063;28;20490;-46
2023/05/26 13:38:58;;;;;;;2.05;1.85;;;;;;;19.35;54.79;97577.00;10392991;28;20414;-49
2023/05/26 13:44:17;;;;;;;1.92;1.73;;;;;;;19.36;54.89;97580.50;10392803;28;20402;-48
2023/05/26 13:49:36;;;;;;;1.98;1.70;;;;;;;19.37;54.97;97587.53;10408056;28;20042;-49
2023/05/26 13:54:56;;;;;;;1.73;1.63;;;;;;;19.36;55.06;97583.19;10421063;28;20069;-46
2023/05/26 14:00:15;;;;;;;1.95;1.60;;;;;;;19.36;54.91;97585.91;10419503;28;20049;-49
2023/05/26 14:05:34;;;;;;;2.10;1.60;;;;;;;19.37;54.96;97582.13;10397839;28;20498;-49
2023/05/26 14:10:54;;;;;;;1.40;1.30;;;;;;;19.38;55.06;97586.41;10407226;28;20060;-46
2023/05/26 14:16:13;;;;;;;2.75;1.63;;;;;;;19.36;55.07;97578.59;10404144;28;20077;-46
2023/05/26 14:21:33;;;;;;;1.80;1.70;;;;;;;19.38;54.93;97581.00;10418590;28;20049;-50
2023/05/26 14:26:53;;;;;;;2.83;1.50;;;;;;;19.36;55.11;97584.00;10411580;28;20045;-47
2023/05/26 14:32:13;;;;;;;1.60;1.50;;;;;;;19.37;55.11;97582.13;10403985;28;20041;-49
2023/05/26 14:37:33;;;;;;;2.47;1.30;;;;;;;19.38;55.13;97575.59;10395459;28;20041;-50
2023/05/26 14:42:52;;;;;;;1.67;1.58;;;;;;;19.39;55.23;97566.41;10405656;28;20045;-46
2023/05/26 14:48:12;;;;;;;1.60;1.50;;;;;;;19.39;55.27;97571.81;10399893;28;20048;-45
2023/05/26 14:53:31;;;;;;;2.22;2.03;;;;;;;19.40;55.30;97578.78;10382583;28;20060;-48
2023/05/26 14:58:50;;;;;;;1.52;1.38;;;;;;;19.39;55.29;97577.19;10389753;28;20434;-48
2023/05/26 15:04:10;;;;;;;1.60;1.50;;;;;;;19.40;55.40;97570.69;10403203;28;20394;-48
2023/05/26 15:09:30;;;;;;;1.23;1.13;;;;;;;19.40;55.47;97567.19;10429308;28;20042;-46
2023/05/26 15:14:50;;;;;;;1.80;1.60;;;;;;;19.41;55.41;97569.59;10379430;28;20054;-47
2023/05/26 15:20:09;;;;;;;2.33;1.70;;;;;;;19.40;55.40;97565.28;10394701;28;20049;-48
2023/05/26 15:25:29;;;;;;;1.70;1.60;;;;;;;19.40;55.48;97565.28;10388691;28;20487;-51
2023/05/26 15:30:48;;;;;;;7.47;3.10;;;;;;;19.40;53.22;97562.56;10411316;28;20478;-49
2023/05/26 15:36:24;;;;;;;4.82;2.85;;;;;;;19.37;53.43;97563.19;10401849;28;20045;-49
2023/05/26 15:41:44;;;;;;;3.72;2.38;;;;;;;19.35;54.07;97560.78;10388152;28;20038;-49
2023/05/26 15:47:04;;;;;;;2.78;2.17;;;;;;;19.36;53.95;97556.97;10409919;28;20076;-48
2023/05/26 15:52:24;;;;;;;2.47;2.20;;;;;;;19.36;54.11;97550.78;10391960;28;20112;-47
2023/05/26 15:57:44;;;;;;;2.47;1.95;;;;;;;19.36;54.29;97550.78;10399003;28;20042;-46
2023/05/26 16:03:04;;;;;;;2.20;2.00;;;;;;;19.36;54.39;97548.06;10380033;28;20120;-46
2023/05/26 16:08:23;;;;;;;2.45;1.92;;;;;;;19.36;54.61;97556.97;10387345;28;20046;-48
2023/05/26 16:13:43;;;;;;;2.58;1.95;;;;;;;19.36;54.49;97550.78;10387256;28;20498;-46
2023/05/26 16:19:03;;;;;;;2.20;1.80;;;;;;;19.35;54.62;97550.00;10406254;28;20044;-47
2023/05/26 16:24:28;;;;;;;2.20;2.00;;;;;;;19.38;54.77;97556.69;10394590;28;20200;-47
2023/05/26 16:29:48;;;;;;;2.00;1.80;;;;;;;19.37;54.86;97538.88;10377030;28;20049;-48
2023/05/26 16:35:09;;;;;;;2.40;1.90;;;;;;;19.37;54.98;97547.00;10375965;28;20053;-45
2023/05/26 16:40:28;;;;;;;3.38;2.22;;;;;;;19.36;54.59;97542.69;10386526;28;20042;-49
2023/05/26 16:45:47;;;;;;;5.50;2.28;;;;;;;19.35;54.44;97535.69;10385570;28;20053;-46
2023/05/26 16:51:07;;;;;;;3.63;2.25;;;;;;;19.36;54.30;97542.69;10401674;28;20052;-48
2023/05/26 16:56:26;;;;;;;2.80;2.15;;;;;;;19.35;54.34;97533.78;10402311;28;20121;-47
2023/05/26 17:01:46;;;;;;;4.35;2.05;;;;;;;19.36;54.37;97539.97;10388697;28;20088;-46
2023/05/26 17:07:06;;;;;;;4.20;2.00;;;;;;;19.36;54.54;97537.28;10391705;28;20041;-48
2023/05/26 17:12:25;;;;;;;2.75;1.80;;;;;;;19.36;54.51;97534.56;10410432;28;20045;-47
2023/05/26 17:17:45;;;;;;;2.95;2.08;;;;;;;19.36;54.69;97529.97;10398769;28;20045;-48
2023/05/26 17:23:05;;;;;;;3.35;1.80;;;;;;;19.35;54.57;97533.78;10378290;28;20053;-45
2023/05/26 17:28:25;;;;;;;2.92;2.17;;;;;;;19.35;54.67;97538.38;10372375;28;20129;-48
2023/05/26 17:33:47;;;;;;;3.50;2.08;;;;;;;19.35;54.68;97533.78;10391466;28;20053;-47
2023/05/26 17:39:07;;;;;;;2.80;2.40;;;;;;;19.34;54.71;97539.47;10391092;28;20418;-47
2023/05/26 17:44:27;;;;;;;2.78;2.20;;;;;;;19.34;54.65;97540.28;10387758;28;20038;-49
2023/05/26 17:49:47;;;;;;;3.50;2.30;;;;;;;19.35;54.65;97549.19;10401477;28;20066;-48
2023/05/26 17:55:07;;;;;;;2.80;2.40;;;;;;;19.33;54.77;97546.00;10395897;28;20052;-46
2023/05/26 18:00:27;;;;;;;2.80;2.13;;;;;;;19.33;54.69;97564.91;10425344;28;20042;-47
2023/05/26 18:05:46;;;;;;;2.67;2.00;;;;;;;19.32;54.70;97566.00;10411644;28;20042;-47
2023/05/26 18:11:06;;;;;;;2.28;1.85;;;;;;;19.33;54.59;97573.81;10397382;28;20491;-48
2023/05/26 18:16:26;;;;;;;2.92;2.10;;;;;;;19.32;54.59;97572.19;10381234;28;20104;-47
2023/05/26 18:21:45;;;;;;;3.67;2.08;;;;;;;19.32;54.61;97574.09;10391293;28;20096;-48
2023/05/26 18:27:05;;;;;;;2.03;1.60;;;;;;;19.33;54.70;97578.44;10421557;28;20103;-48
2023/05/26 18:32:25;;;;;;;2.28;1.70;;;;;;;19.32;54.64;97582.22;10394070;28;20038;-46
2023/05/26 18:37:49;;;;;;;2.42;1.88;;;;;;;19.31;54.57;97591.44;10426302;28;20045;-50
2023/05/26 18:43:09;;;;;;;2.17;1.90;;;;;;;19.31;54.55;97594.13;10398560;28;20038;-47
2023/05/26 18:48:28;;;;;;;2.70;1.92;;;;;;;19.31;54.54;97596.84;10380121;28;20057;-48
2023/05/26 18:53:48;;;;;;;2.92;1.80;;;;;;;19.30;54.62;97601.41;10400742;28;20056;-46
2023/05/26 18:59:08;;;;;;;2.28;1.70;;;;;;;19.30;54.61;97606.03;10407564;28;20041;-46
2023/05/26 19:04:29;;;;;;;1.80;1.70;;;;;;;19.29;54.54;97613.34;10430993;28;20042;-46
2023/05/26 19:09:49;;;;;;;2.05;1.70;;;;;;;19.30;54.64;97628.44;10389164;28;20096;-47
2023/05/26 19:15:09;;;;;;;3.63;1.95;;;;;;;19.30;54.64;97624.94;10395055;28;20046;-47
2023/05/26 19:20:29;;;;;;;2.03;1.80;;;;;;;19.29;54.50;97617.97;10389064;28;20050;-46
2023/05/26 19:25:49;;;;;;;1.80;1.70;;;;;;;19.28;54.56;97630.63;10392037;28;20042;-45
2023/05/26 19:31:09;;;;;;;2.10;1.80;;;;;;;19.29;54.42;97636.88;10388854;28;20521;-47
2023/05/26 19:36:29;;;;;;;2.08;1.63;;;;;;;19.28;54.57;97635.25;10403586;28;20053;-48
2023/05/26 19:41:49;;;;;;;3.00;1.77;;;;;;;19.28;54.53;97632.56;10388338;28;20033;-47
2023/05/26 19:47:09;;;;;;;2.25;1.77;;;;;;;19.28;54.44;97635.25;10407542;28;20057;-49
2023/05/26 19:52:28;;;;;;;2.08;1.85;;;;;;;19.27;54.49;97639.88;10374178;28;20065;-46
2023/05/26 19:57:47;;;;;;;2.45;1.70;;;;;;;19.27;54.45;97639.88;10393308;28;20046;-47
2023/05/26 20:03:07;;;;;;;1.90;1.70;;;;;;;19.28;54.51;97654.16;10385374;28;20041;-49
2023/05/26 20:08:26;;;;;;;1.92;1.73;;;;;;;19.27;54.36;97655.28;10390740;28;20383;-50
2023/05/26 20:13:46;;;;;;;1.45;1.35;;;;;;;19.27;54.46;97655.28;10401186;28;20401;-46
2023/05/26 20:19:05;;;;;;;1.98;1.70;;;;;;;19.26;54.39;97646.34;10389993;28;20478;-46
2023/05/26 20:24:24;;;;;;;1.90;1.70;;;;;;;19.26;54.36;97662.56;10405825;28;20445;-47
2023/05/26 20:29:44;;;;;;;3.53;1.75;;;;;;;19.25;54.40;97662.84;10386495;28;20046;-47
2023/05/26 20:35:05;;;;;;;1.85;1.70;;;;;;;19.25;54.44;97668.25;10405877;28;20033;-48
2023/05/26 20:40:24;;;;;;;1.83;1.67;;;;;;;19.24;54.50;97672.88;10385318;28;20050;-48
2023/05/26 20:45:45;;;;;;;1.67;1.58;;;;;;;19.25;54.43;97676.38;10397578;28;20111;-47
2023/05/26 20:51:06;;;;;;;1.40;1.30;;;;;;;19.26;54.43;97680.69;10382483;28;20104;-46
2023/05/26 20:56:26;;;;;;;2.00;1.52;;;;;;;19.25;54.52;97689.88;10399540;28;20072;-49
2023/05/26 21:01:47;;;;;;;1.95;1.73;;;;;;;19.25;54.47;97687.16;10399408;28;20521;-47
2023/05/26 21:07:06;;;;;;;1.60;1.50;;;;;;;19.24;54.50;97688.28;10426794;28;20046;-48
2023/05/26 21:12:26;;;;;;;1.80;1.63;;;;;;;19.23;54.52;97686.66;10375618;28;20414;-47
2023/05/26 21:17:46;;;;;;;1.77;1.58;;;;;;;19.23;54.39;97692.06;10391624;28;20092;-50
2023/05/26 21:23:06;;;;;;;1.92;1.60;;;;;;;19.23;54.48;97690.19;10385536;28;20037;-49
2023/05/26 21:28:25;;;;;;;1.75;1.60;;;;;;;19.23;54.44;97697.47;10386616;28;20042;-48
2023/05/26 21:33:45;;;;;;;2.28;1.70;;;;;;;19.23;54.42;97686.66;10417462;28;20045;-46
2023/05/26 21:39:05;;;;;;;1.35;1.25;;;;;;;19.22;54.39;97688.59;10401496;28;20421;-46
2023/05/26 21:44:25;;;;;;;2.13;1.60;;;;;;;19.21;54.34;97691.56;10420638;28;20049;-47
2023/05/26 21:49:44;;;;;;;1.73;1.45;;;;;;;19.21;54.40;97702.38;10392559;28;20514;-49
2023/05/26 21:55:04;;;;;;;1.98;1.77;;;;;;;19.21;54.37;97710.47;10406040;28;20061;-50
2023/05/26 22:00:24;;;;;;;4.80;1.50;;;;;;;19.21;54.45;97710.47;10379169;28;20116;-48
2023/05/26 22:05:44;;;;;;;1.50;1.40;;;;;;;19.20;54.45;97715.09;10427517;28;20045;-48
2023/05/26 22:11:03;;;;;;;1.40;1.30;;;;;;;19.21;54.36;97710.47;10417119;28;20391;-48
2023/05/26 22:16:23;;;;;;;1.50;1.40;;;;;;;19.20;54.50;97706.19;10391743;28;20476;-48
2023/05/26 22:21:42;;;;;;;2.13;1.60;;;;;;;19.20;54.43;97709.69;10394412;28;20406;-46
2023/05/26 22:27:02;;;;;;;1.50;1.40;;;;;;;19.19;54.37;97707.28;10407809;28;20513;-47
2023/05/26 22:32:22;;;;;;;1.60;1.50;;;;;;;19.20;54.35;97708.91;10397493;28;20100;-47
2023/05/26 22:37:41;;;;;;;2.05;1.50;;;;;;;19.17;54.40;97719.19;10393692;28;20042;-48
2023/05/26 22:43:00;;;;;;;1.98;1.50;;;;;;;19.18;54.37;97722.69;10416474;28;20037;-46
2023/05/26 22:48:21;;;;;;;1.33;1.23;;;;;;;19.18;54.47;97730.81;10401857;28;20052;-49
2023/05/26 22:53:40;;;;;;;1.60;1.40;;;;;;;19.17;54.32;97732.72;10380665;28;20045;-46
2023/05/26 22:59:00;;;;;;;1.80;1.70;;;;;;;19.17;54.24;97729.22;10409431;28;20041;-45
2023/05/26 23:04:20;;;;;;;1.40;1.30;;;;;;;19.18;54.37;97733.50;10396617;28;20042;-48
2023/05/26 23:09:40;;;;;;;1.40;1.30;;;;;;;19.15;54.43;97740.31;10411143;28;20088;-47
2023/05/26 23:14:59;;;;;;;1.38;1.20;;;;;;;19.16;54.40;97741.09;10392471;28;20113;-47
2023/05/26 23:20:19;;;;;;;1.35;1.25;;;;;;;19.16;54.40;97738.41;10395119;28;20038;-47
2023/05/26 23:25:40;;;;;;;1.60;1.50;;;;;;;19.16;54.36;97746.50;10408513;28;20046;-48
2023/05/26 23:31:00;;;;;;;1.50;1.40;;;;;;;19.14;54.34;97735.19;10391786;28;20487;-46
2023/05/26 23:36:19;;;;;;;1.45;1.27;;;;;;;19.15;54.33;97743.00;10391350;28;20045;-46
2023/05/26 23:41:39;;;;;;;1.35;1.25;;;;;;;19.15;54.36;97751.13;10394378;28;20038;-48
2023/05/26 23:46:58;;;;;;;1.65;1.27;;;;;;;19.14;54.36;97749.50;10394088;28;20045;-47
2023/05/26 23:52:18;;;;;;;1.20;1.10;;;;;;;19.13;54.29;97750.63;10378314;28;20065;-47
2023/05/26 23:57:38;;;;;;;1.65;1.25;;;;;;;19.13;54.46;97739.81;10402751;28;20045;-46
